Zook Spur, Iowa
Current Conditions -  °F | °C
As of 7:15 AM on Wednesday 22 Oct 2014 (Local Time) from KBNW Reporting Station
Overcast Overcast  
Wind Chill: 35°   Ceiling: 5000
Heat Index: 41°   Visibility: 10mi
Dew Point: 39°   Wind: 10mph
Humidity: 93%   Direction: 140°SE
Pressure: 30.21"   Gusts: 16mph
Location:  41.9049°N, 93.9596°W
Report Text: KBNW 221215Z AUTO 14009G14KT 10SM SCT044 OVC050 05/04 A3021 RMK AO2
Loading
Personal Weather Stations






























Interactive Weather Map
Tropical Storm Tracking
New forecast layout! Learn more

10-Day Weather Forecast

Advertisements
Track Severe Weather on mobile